Time;durP1;ratioP1;P1;durP2;ratioP2;P2;SDS_P1;SDS_P2;PMS_P1;PMS_P2;Temp;Humidity;BMP_temperature;BMP_pressure;BME280_temperature;BME280_humidity;BME280_pressure;Samples;Min_cycle;Max_cycle;Signal;HPM_P1;HPM_P2
2023/07/06 00:00:55;;;;;;;;;2.00;2.00;;;;;27.21;35.00;101627.34;5098408;27;45453;-75
2023/07/06 00:03:23;;;;;;;;;2.00;2.00;;;;;27.18;35.53;101623.22;5097774;27;45375;-75
2023/07/06 00:05:49;;;;;;;;;2.00;2.00;;;;;27.17;35.26;101619.72;5098541;27;45291;-74
2023/07/06 00:08:16;;;;;;;;;2.67;2.67;;;;;27.16;35.56;101626.09;5096897;27;46102;-75
2023/07/06 00:10:46;;;;;;;;;4.67;1.33;;;;;27.22;34.88;101624.47;5098279;27;45421;-75
2023/07/06 00:13:12;;;;;;;;;0.33;0.33;;;;;27.16;34.83;101617.25;5097295;27;45308;-75
2023/07/06 00:15:41;;;;;;;;;4.00;2.00;;;;;27.13;35.27;101615.81;5098117;27;45349;-74
2023/07/06 00:18:08;;;;;;;;;4.00;2.67;;;;;27.17;35.40;101618.88;5098499;27;45512;-74
2023/07/06 00:20:38;;;;;;;;;2.67;2.33;;;;;27.20;35.53;101623.84;5098087;27;45377;-74
2023/07/06 00:23:04;;;;;;;;;2.00;2.00;;;;;27.17;35.20;101624.22;5098237;27;45534;-74
2023/07/06 00:25:30;;;;;;;;;3.00;1.33;;;;;27.17;35.55;101621.56;5098336;27;45345;-74
2023/07/06 00:27:58;;;;;;;;;3.00;2.67;;;;;27.19;35.44;101630.22;5097579;27;46181;-75
2023/07/06 00:30:40;;;;;;;;;2.33;1.33;;;;;27.20;35.00;101634.53;5097687;27;45372;-75
2023/07/06 00:33:11;;;;;;;;;2.33;2.33;;;;;27.19;35.11;101624.88;5097997;27;45605;-74
2023/07/06 00:35:39;;;;;;;;;4.33;3.00;;;;;27.12;34.97;101614.09;5098088;27;45291;-74
2023/07/06 00:38:09;;;;;;;;;2.00;2.00;;;;;27.15;35.00;101621.75;5097741;27;47084;-74
2023/07/06 00:40:37;;;;;;;;;2.00;2.00;;;;;27.15;34.93;101624.44;5097776;27;45335;-74
2023/07/06 00:43:02;;;;;;;;;3.00;2.67;;;;;27.16;35.52;101622.59;5096436;27;45303;-75
2023/07/06 00:45:28;;;;;;;;;1.67;1.67;;;;;27.15;35.10;101627.09;5097401;27;45197;-75
2023/07/06 00:47:57;;;;;;;;;4.00;2.33;;;;;27.22;35.42;101640.50;5096386;27;48101;-75
2023/07/06 00:50:25;;;;;;;;;2.67;2.67;;;;;27.17;34.90;101633.06;5097845;27;45315;-75
2023/07/06 00:52:55;;;;;;;;;3.33;1.33;;;;;27.17;35.19;101632.25;5098597;27;45410;-75
2023/07/06 00:55:26;;;;;;;;;3.00;3.00;;;;;27.17;34.74;101633.06;5097724;27;45802;-74
2023/07/06 00:57:56;;;;;;;;;2.00;2.00;;;;;27.18;34.81;101626.72;5096074;27;46783;-75
2023/07/06 01:00:21;;;;;;;;;3.33;2.00;;;;;27.21;35.25;101636.19;5097297;27;45360;-76
2023/07/06 01:02:52;;;;;;;;;2.00;2.00;;;;;27.14;34.80;101622.78;5097493;27;45361;-74
2023/07/06 01:05:19;;;;;;;;;5.00;2.00;;;;;27.17;34.77;101630.41;5097911;27;45392;-74
2023/07/06 01:07:47;;;;;;;;;4.00;2.33;;;;;27.20;35.02;101641.72;5096617;27;47126;-74
2023/07/06 01:10:13;;;;;;;;;4.00;2.00;;;;;27.15;35.21;101627.09;5095697;27;45437;-75
2023/07/06 01:12:38;;;;;;;;;2.67;2.67;;;;;27.13;34.90;101623.81;5097379;27;45345;-75
2023/07/06 01:15:06;;;;;;;;;5.00;2.67;;;;;27.17;35.32;101624.22;5097118;27;45294;-75
2023/07/06 01:18:06;;;;;;;;;2.67;2.33;;;;;27.17;34.52;101626.91;5097111;27;47150;-75
2023/07/06 01:20:44;;;;;;;;;2.00;2.00;;;;;27.17;35.35;101626.91;5073650;28;45325;-74
2023/07/06 01:23:16;;;;;;;;;4.00;2.00;;;;;27.18;34.60;101626.72;5074578;28;45411;-74
2023/07/06 01:26:28;;;;;;;;;2.00;2.00;;;;;27.18;34.61;101631.22;5074676;28;45431;-75
2023/07/06 01:29:23;;;;;;;;;2.00;2.00;;;;;27.20;34.72;101631.03;5013591;28;46648;-74
2023/07/06 01:31:55;;;;;;;;;2.00;2.00;;;;;27.18;34.70;101631.22;5014049;28;45455;-75
2023/07/06 01:34:41;;;;;;;;;2.33;1.67;;;;;27.17;34.62;101622.38;5014018;28;45550;-74
2023/07/06 01:37:30;;;;;;;;;5.00;2.00;;;;;27.14;35.13;101624.66;5014067;28;45281;-74
2023/07/06 01:39:57;;;;;;;;;2.00;2.00;;;;;27.13;35.01;101614.97;5013658;28;47462;-75
2023/07/06 01:42:25;;;;;;;;;2.00;2.00;;;;;27.15;34.91;101629.78;5013863;28;45329;-74
2023/07/06 01:44:53;;;;;;;;;3.00;2.00;;;;;27.14;34.70;101621.97;5013593;28;45433;-74
2023/07/06 01:47:19;;;;;;;;;2.00;1.67;;;;;27.15;34.96;101623.59;5012947;28;45927;-75
2023/07/06 01:49:46;;;;;;;;;2.67;2.67;;;;;27.15;34.79;101621.75;4996929;28;47733;-75
2023/07/06 01:52:30;;;;;;;;;2.33;1.67;;;;;27.16;35.14;101625.25;5013503;28;45410;-75
2023/07/06 01:55:20;;;;;;;;;3.00;2.00;;;;;27.16;34.50;101622.59;4997223;28;45464;-75
2023/07/06 01:58:05;;;;;;;;;1.67;1.67;;;;;27.15;35.21;101623.59;5042797;28;45688;-75
2023/07/06 02:00:34;;;;;;;;;3.00;3.00;;;;;27.08;34.66;101610.19;5092814;27;45602;-75
2023/07/06 02:03:01;;;;;;;;;3.00;3.00;;;;;27.12;35.04;101624.78;5095312;27;45205;-75
2023/07/06 02:05:27;;;;;;;;;2.33;2.33;;;;;27.07;34.99;101616.53;5096891;27;45343;-74
2023/07/06 02:07:53;;;;;;;;;3.00;3.00;;;;;27.13;35.05;101622.97;5096381;27;45627;-74
2023/07/06 02:10:20;;;;;;;;;3.00;3.00;;;;;27.08;35.07;101602.19;5096270;27;45498;-74
2023/07/06 02:12:47;;;;;;;;;2.00;2.00;;;;;27.14;34.49;101613.97;5096191;27;45389;-75
2023/07/06 02:15:16;;;;;;;;;2.00;2.00;;;;;27.14;34.92;101613.97;5096484;27;45394;-76
2023/07/06 02:17:42;;;;;;;;;1.33;1.33;;;;;27.10;34.67;101605.47;5096304;27;45480;-75
2023/07/06 02:20:09;;;;;;;;;2.00;2.00;;;;;27.14;34.69;101617.44;5094876;27;47895;-75
2023/07/06 02:22:34;;;;;;;;;2.00;2.00;;;;;27.12;35.00;101613.28;5096059;27;45328;-75
2023/07/06 02:24:59;;;;;;;;;1.67;0.00;;;;;27.13;34.54;101618.47;5096311;27;45354;-75
2023/07/06 02:27:25;;;;;;;;;3.00;3.00;;;;;27.06;34.68;101596.22;5094752;27;45378;-75
2023/07/06 02:29:50;;;;;;;;;2.00;2.00;;;;;27.08;34.72;101607.53;5096215;27;45377;-75
2023/07/06 02:32:15;;;;;;;;;5.00;3.33;;;;;27.10;34.66;101605.47;5095843;27;45338;-74
2023/07/06 02:34:41;;;;;;;;;2.00;2.00;;;;;27.08;34.53;101610.19;5096649;27;45678;-75
2023/07/06 02:37:06;;;;;;;;;2.67;2.00;;;;;27.07;35.06;101612.03;5095216;27;45519;-75
2023/07/06 02:39:31;;;;;;;;;3.33;3.00;;;;;27.07;34.85;101612.03;5094990;27;47300;-75
2023/07/06 02:41:57;;;;;;;;;3.67;3.33;;;;;27.10;34.55;101610.81;5095712;27;45307;-75
2023/07/06 02:44:23;;;;;;;;;3.00;3.00;;;;;27.10;35.07;101615.31;5095071;27;45750;-75
2023/07/06 02:46:50;;;;;;;;;3.33;2.00;;;;;27.10;34.65;101612.66;5096057;27;45176;-74
2023/07/06 02:49:16;;;;;;;;;2.67;2.67;;;;;27.11;34.87;101619.66;5096052;27;45406;-75
2023/07/06 02:51:42;;;;;;;;;3.00;3.00;;;;;27.05;34.26;101611.41;5095836;27;45460;-75
2023/07/06 02:54:10;;;;;;;;;3.00;3.00;;;;;27.05;34.31;101613.25;5096146;27;45386;-75
2023/07/06 02:56:35;;;;;;;;;2.33;2.00;;;;;27.05;34.26;101615.91;5095700;27;45375;-75
2023/07/06 02:59:00;;;;;;;;;2.00;2.00;;;;;27.03;34.34;101612.63;5096575;27;47367;-75
2023/07/06 03:01:26;;;;;;;;;1.67;1.67;;;;;27.08;34.40;101618.19;5098596;27;45476;-75
2023/07/06 03:03:51;;;;;;;;;6.00;4.00;;;;;27.09;34.82;101621.72;5098386;27;45863;-74
2023/07/06 03:06:18;;;;;;;;;2.00;2.00;;;;;27.07;34.43;101617.38;5099692;27;45533;-75
2023/07/06 03:08:44;;;;;;;;;3.00;3.00;;;;;27.06;34.87;101617.59;5099316;27;46556;-75
2023/07/06 03:11:10;;;;;;;;;3.00;3.00;;;;;26.98;34.65;101610.53;5099039;27;45350;-75
2023/07/06 03:13:36;;;;;;;;;4.67;2.00;;;;;26.98;34.90;101605.22;5099425;27;45510;-75
2023/07/06 03:16:03;;;;;;;;;3.00;2.00;;;;;27.07;34.19;101624.56;5099180;27;45409;-75
2023/07/06 03:18:28;;;;;;;;;3.67;2.00;;;;;27.00;34.15;101619.19;5099100;27;46300;-75
2023/07/06 03:20:55;;;;;;;;;5.00;2.00;;;;;27.05;34.96;101618.59;5099002;27;45495;-75
2023/07/06 03:23:21;;;;;;;;;2.00;2.00;;;;;27.02;34.28;101617.13;5099631;27;45404;-75
2023/07/06 03:25:52;;;;;;;;;2.00;2.00;;;;;27.03;34.71;101616.13;5098805;27;45333;-74
2023/07/06 03:28:18;;;;;;;;;4.33;2.67;;;;;27.04;34.90;101620.44;5098909;27;47277;-75
2023/07/06 03:30:43;;;;;;;;;2.00;2.00;;;;;26.99;34.28;101609.50;5098945;27;45369;-74
2023/07/06 03:33:09;;;;;;;;;3.00;2.00;;;;;27.05;34.74;101611.41;5099060;27;45444;-75
2023/07/06 03:35:39;;;;;;;;;2.00;2.00;;;;;27.00;34.27;101600.50;5097784;27;45454;-74
2023/07/06 03:38:04;;;;;;;;;3.00;3.00;;;;;27.04;34.75;101612.41;5097566;27;47908;-75
2023/07/06 03:40:30;;;;;;;;;3.33;2.00;;;;;27.02;34.40;101600.28;5098480;27;45267;-75
2023/07/06 03:42:56;;;;;;;;;2.67;2.67;;;;;27.04;34.00;101608.91;5099255;27;45631;-75
2023/07/06 03:45:23;;;;;;;;;3.00;3.00;;;;;27.02;34.21;101600.28;5099110;27;45573;-75
2023/07/06 03:47:50;;;;;;;;;4.00;2.67;;;;;27.05;34.48;101614.06;5098502;27;46069;-74
2023/07/06 03:50:17;;;;;;;;;2.00;2.00;;;;;27.06;34.39;101604.22;5098480;27;45366;-74
2023/07/06 03:52:44;;;;;;;;;3.67;2.33;;;;;27.01;34.51;101595.97;5098802;27;45414;-75
2023/07/06 03:55:14;;;;;;;;;2.00;2.00;;;;;27.05;34.04;101608.72;5098233;27;45694;-74
2023/07/06 03:57:40;;;;;;;;;3.33;2.00;;;;;27.04;34.44;101599.06;5098629;27;46776;-74
2023/07/06 04:00:16;;;;;;;;;4.00;3.00;;;;;26.99;33.99;101596.16;5098603;27;45457;-74
2023/07/06 04:02:42;;;;;;;;;2.00;2.00;;;;;27.03;34.69;101597.44;5098173;27;45347;-74
2023/07/06 04:05:08;;;;;;;;;3.00;3.00;;;;;26.98;34.38;101594.53;5098559;27;45567;-75
2023/07/06 04:07:34;;;;;;;;;3.00;2.00;;;;;26.99;34.01;101609.50;5098195;27;45563;-75
2023/07/06 04:10:00;;;;;;;;;3.33;3.00;;;;;26.99;33.95;101614.00;5097522;27;45341;-75
2023/07/06 04:12:25;;;;;;;;;4.33;3.00;;;;;27.02;34.57;101608.28;5098616;27;45359;-75
2023/07/06 04:14:51;;;;;;;;;2.00;2.00;;;;;26.97;34.13;101600.88;5098353;27;45596;-75
2023/07/06 04:17:16;;;;;;;;;2.00;2.00;;;;;27.03;34.11;101613.47;5096717;27;47049;-75
2023/07/06 04:19:42;;;;;;;;;2.33;2.33;;;;;26.95;34.17;101606.41;5098299;27;45378;-74
2023/07/06 04:22:07;;;;;;;;;1.67;1.67;;;;;26.99;33.90;101622.03;5097116;27;45391;-74
2023/07/06 04:24:34;;;;;;;;;2.00;2.00;;;;;27.04;33.89;101620.44;5096319;27;45427;-75
2023/07/06 04:27:00;;;;;;;;;3.00;3.00;;;;;27.01;34.53;101617.34;5098177;27;47019;-75
2023/07/06 04:29:26;;;;;;;;;2.00;1.67;;;;;27.04;34.26;101624.94;5098186;27;45403;-75
2023/07/06 04:31:55;;;;;;;;;2.00;2.00;;;;;27.03;34.47;101623.31;5098890;27;45373;-75
2023/07/06 04:34:22;;;;;;;;;3.33;2.00;;;;;27.01;34.39;101612.00;5097923;27;45467;-75
2023/07/06 04:36:47;;;;;;;;;2.00;2.00;;;;;27.09;34.25;101627.03;5097553;27;45680;-75
2023/07/06 04:39:13;;;;;;;;;3.67;3.00;;;;;27.03;33.97;101607.28;5097861;27;45487;-75
2023/07/06 04:41:38;;;;;;;;;3.00;3.00;;;;;27.06;34.16;101625.59;5098213;27;45929;-75
2023/07/06 04:44:04;;;;;;;;;2.00;2.00;;;;;27.07;34.12;101616.53;5098093;27;45471;-74
2023/07/06 04:46:29;;;;;;;;;2.00;2.00;;;;;27.11;34.39;101620.50;5097661;27;46388;-75
2023/07/06 04:48:55;;;;;;;;;2.67;2.33;;;;;26.99;34.37;101604.16;5097706;27;45404;-75
2023/07/06 04:51:20;;;;;;;;;4.00;2.00;;;;;27.14;34.42;101619.31;5097571;27;45653;-74
2023/07/06 04:53:45;;;;;;;;;2.00;1.67;;;;;27.17;33.75;101625.06;5097915;27;45329;-75
2023/07/06 04:56:11;;;;;;;;;2.00;2.00;;;;;27.18;34.19;101625.88;5097582;27;45444;-75
2023/07/06 04:58:38;;;;;;;;;2.00;2.00;;;;;27.25;34.22;101626.75;5097479;27;45161;-75
2023/07/06 05:01:07;;;;;;;;;2.00;2.00;;;;;27.23;34.22;101617.28;5097577;27;45283;-75
2023/07/06 05:03:35;;;;;;;;;2.67;2.00;;;;;27.32;33.49;101625.97;5097530;27;45619;-74
2023/07/06 05:06:04;;;;;;;;;3.00;2.00;;;;;27.33;33.65;101635.63;5097106;27;47154;-75
2023/07/06 05:08:32;;;;;;;;;5.33;2.33;;;;;27.34;33.43;101632.75;5097091;27;45221;-74
2023/07/06 05:10:58;;;;;;;;;3.33;3.00;;;;;27.36;33.41;101625.38;5097313;27;45341;-75
2023/07/06 05:13:24;;;;;;;;;3.00;3.00;;;;;27.35;33.84;101625.56;5097438;27;45379;-74
2023/07/06 05:15:51;;;;;;;;;3.67;2.00;;;;;27.40;33.95;101631.94;5097211;27;45364;-75
2023/07/06 05:18:19;;;;;;;;;2.00;2.00;;;;;27.39;34.02;101630.31;5097402;27;45730;-74
2023/07/06 05:20:46;;;;;;;;;3.67;3.00;;;;;27.40;33.53;101639.16;5097418;27;45486;-75
2023/07/06 05:23:12;;;;;;;;;3.33;3.00;;;;;27.47;33.37;101648.03;5096404;27;45562;-74
2023/07/06 05:25:38;;;;;;;;;1.67;1.67;;;;;27.45;33.57;101643.91;5097013;27;47031;-74
2023/07/06 05:28:03;;;;;;;;;5.33;2.67;;;;;27.48;33.73;101638.19;5097060;27;45450;-74
2023/07/06 05:30:29;;;;;;;;;4.00;2.00;;;;;27.49;33.98;101639.81;5095676;27;45389;-75
2023/07/06 05:32:54;;;;;;;;;2.33;2.33;;;;;27.54;33.83;101640.03;5095919;27;45380;-74
2023/07/06 05:35:22;;;;;;;;;2.00;2.00;;;;;27.57;33.45;101636.16;5096467;27;47401;-74
2023/07/06 05:37:48;;;;;;;;;3.00;3.00;;;;;27.63;33.71;101638.03;5097214;27;45327;-74
2023/07/06 05:40:14;;;;;;;;;3.00;3.00;;;;;27.63;33.50;101635.34;5096985;27;45515;-75
2023/07/06 05:42:40;;;;;;;;;2.67;2.67;;;;;27.72;33.28;101646.69;5095655;27;45403;-75
2023/07/06 05:45:07;;;;;;;;;3.00;2.00;;;;;27.74;33.67;101641.97;5096871;27;46388;-75
2023/07/06 05:47:32;;;;;;;;;3.00;3.00;;;;;27.78;33.34;101639.72;5096783;27;45369;-75
2023/07/06 05:49:58;;;;;;;;;3.00;3.00;;;;;27.80;33.01;101645.72;5112636;27;45634;-75
2023/07/06 05:52:23;;;;;;;;;3.67;3.00;;;;;27.82;33.11;101644.50;5112692;27;45517;-75
2023/07/06 05:54:48;;;;;;;;;3.00;3.00;;;;;27.88;33.46;101645.53;5096612;27;47094;-75
2023/07/06 05:57:16;;;;;;;;;4.67;3.00;;;;;27.94;33.23;101636.72;5095493;27;45428;-75
2023/07/06 05:59:42;;;;;;;;;3.33;3.00;;;;;27.96;33.16;101628.50;5096865;27;45287;-75
2023/07/06 06:02:12;;;;;;;;;3.00;3.00;;;;;28.11;33.26;101652.38;5095241;27;45322;-75
2023/07/06 06:04:38;;;;;;;;;3.00;3.00;;;;;28.22;33.11;101640.28;5096163;27;46456;-75
2023/07/06 06:07:06;;;;;;;;;2.67;2.67;;;;;28.36;32.82;101654.50;5094890;27;45440;-75
2023/07/06 06:09:32;;;;;;;;;2.67;2.67;;;;;28.40;32.72;101637.00;5096503;27;45338;-75
2023/07/06 06:11:58;;;;;;;;;3.33;3.00;;;;;28.61;32.71;101651.25;5096471;27;45425;-75
2023/07/06 06:14:23;;;;;;;;;4.00;2.67;;;;;28.83;32.30;101655.56;5095111;27;46696;-74
2023/07/06 06:16:49;;;;;;;;;3.00;3.00;;;;;28.95;32.27;101651.22;5096075;27;45338;-75
2023/07/06 06:19:15;;;;;;;;;5.67;4.00;;;;;29.06;32.13;101660.47;5094640;27;45329;-81
2023/07/06 06:21:41;;;;;;;;;3.00;3.00;;;;;29.07;32.16;101662.09;5095298;27;45348;-78
2023/07/06 06:24:08;;;;;;;;;4.67;3.00;;;;;29.05;32.16;101664.19;5075397;27;46351;-80
2023/07/06 06:26:35;;;;;;;;;6.33;5.00;;;;;29.03;32.18;101666.25;5075478;27;45457;-79
2023/07/06 06:29:01;;;;;;;;;7.67;7.00;;;;;28.85;31.49;101664.22;5088594;27;45520;-75
2023/07/06 06:31:27;;;;;;;;;11.33;9.67;;;;;28.55;31.76;101660.09;5094125;27;45657;-77
2023/07/06 06:33:53;;;;;;;;;8.67;8.33;;;;;28.27;31.84;101666.41;5096743;27;46295;-76
2023/07/06 06:36:18;;;;;;;;;11.00;11.00;;;;;28.02;32.14;101661.63;5099137;27;45488;-78
2023/07/06 06:38:44;;;;;;;;;8.33;7.00;;;;;27.82;32.65;101660.53;5099714;27;45490;-77
2023/07/06 06:41:11;;;;;;;;;11.33;9.67;;;;;27.65;32.90;101665.38;5100019;27;45234;-79
2023/07/06 06:43:38;;;;;;;;;9.33;9.33;;;;;27.43;33.03;101662.00;5099472;27;45507;-76
2023/07/06 06:46:08;;;;;;;;;10.00;7.67;;;;;27.26;33.10;101665.81;5099074;27;45326;-78
2023/07/06 06:48:34;;;;;;;;;8.00;8.00;;;;;27.17;33.85;101677.66;5098151;27;45429;-77
2023/07/06 06:51:00;;;;;;;;;8.67;8.33;;;;;27.01;33.29;101673.41;5097843;27;45230;-81
2023/07/06 06:53:26;;;;;;;;;8.67;7.33;;;;;26.85;33.60;101662.81;5088089;27;46582;-82
2023/07/06 06:55:52;;;;;;;;;9.33;8.00;;;;;26.76;33.52;101666.66;5099589;27;45527;-81
2023/07/06 06:58:20;;;;;;;;;7.00;6.33;;;;;26.71;33.98;101674.41;5101743;27;45465;-81
2023/07/06 07:00:46;;;;;;;;;7.67;6.00;;;;;26.61;34.37;101670.22;5097402;27;45604;-81
2023/07/06 07:03:13;;;;;;;;;6.00;5.00;;;;;26.53;34.49;101670.34;5097801;27;46093;-81
2023/07/06 07:05:39;;;;;;;;;7.33;6.67;;;;;26.52;34.96;101677.53;5097215;27;45418;-81
2023/07/06 07:08:04;;;;;;;;;5.33;5.33;;;;;26.44;34.73;101671.50;5097690;27;45378;-80
2023/07/06 07:10:30;;;;;;;;;7.00;7.00;;;;;26.39;35.00;101672.84;5099015;27;45294;-81
2023/07/06 07:12:55;;;;;;;;;6.67;6.67;;;;;26.32;34.58;101677.31;5098528;27;46479;-81
2023/07/06 07:15:21;;;;;;;;;7.00;5.67;;;;;26.24;35.00;101678.25;5113459;27;45381;-81
2023/07/06 07:17:46;;;;;;;;;9.67;7.33;;;;;26.15;35.43;101677.53;5096829;27;45299;-81
2023/07/06 07:20:13;;;;;;;;;7.33;6.33;;;;;26.14;35.55;101677.72;5097977;27;45613;-81
2023/07/06 07:22:39;;;;;;;;;8.33;6.00;;;;;26.18;35.53;101687.00;5098099;27;46364;-80
2023/07/06 07:25:06;;;;;;;;;5.00;5.00;;;;;26.19;35.58;101686.00;5098150;27;45379;-80
2023/07/06 07:27:34;;;;;;;;;7.33;6.33;;;;;26.22;35.57;101685.63;5097897;27;45487;-81
2023/07/06 07:30:00;;;;;;;;;9.33;9.33;;;;;26.25;35.68;101673.75;5097864;27;45453;-80
2023/07/06 07:32:28;;;;;;;;;8.00;6.67;;;;;26.18;35.64;101671.81;5096240;27;47735;-80
2023/07/06 07:34:53;;;;;;;;;7.00;7.00;;;;;26.24;35.36;101683.59;5097838;27;45449;-80
2023/07/06 07:37:19;;;;;;;;;6.33;6.33;;;;;26.26;35.74;101684.22;5097327;27;46017;-80
2023/07/06 07:39:48;;;;;;;;;7.67;7.00;;;;;26.20;35.60;101681.50;5105269;27;45597;-81
2023/07/06 07:42:14;;;;;;;;;7.33;7.33;;;;;26.24;35.72;101677.41;5116390;27;46307;-80
2023/07/06 07:44:47;;;;;;;;;10.33;8.33;;;;;26.20;35.86;101674.31;5133678;27;45580;-80
2023/07/06 07:47:18;;;;;;;;;11.25;8.50;;;;;26.20;35.51;101674.31;5103715;27;45500;-80
2023/07/06 07:49:45;;;;;;;;;13.00;10.33;;;;;26.19;35.86;101680.66;5101145;27;45354;-80
2023/07/06 07:52:12;;;;;;;;;14.00;14.00;;;;;26.21;35.68;101683.13;5096751;27;46086;-80
2023/07/06 07:54:38;;;;;;;;;21.50;19.75;;;;;26.16;35.53;101676.53;5097740;27;45413;-80
2023/07/06 07:57:04;;;;;;;;;16.75;14.25;;;;;26.14;35.85;101675.91;5096007;27;45331;-81
2023/07/06 07:59:29;;;;;;;;;20.50;16.75;;;;;26.16;35.36;101679.19;5097087;27;45495;-81
2023/07/06 08:01:56;;;;;;;;;14.25;13.00;;;;;26.14;35.53;101665.22;5096462;27;47757;-80
2023/07/06 08:04:21;;;;;;;;;13.50;13.50;;;;;26.15;35.95;101664.19;5088856;27;45337;-81
2023/07/06 08:06:47;;;;;;;;;11.75;11.75;;;;;26.23;35.23;101675.78;5097472;27;45497;-79
2023/07/06 08:09:13;;;;;;;;;9.00;9.00;;;;;26.23;35.83;101676.59;5096429;27;45291;-81
2023/07/06 08:11:45;;;;;;;;;8.67;8.67;;;;;26.23;35.95;101671.25;5097895;27;47093;-81
2023/07/06 08:14:11;;;;;;;;;6.67;6.67;;;;;26.29;35.29;101672.34;5096854;27;45512;-80
2023/07/06 08:16:40;;;;;;;;;4.00;4.00;;;;;26.28;35.45;101671.50;5097384;27;45459;-81
2023/07/06 08:19:06;;;;;;;;;7.00;6.00;;;;;26.25;35.50;101669.25;5097460;27;45472;-81
2023/07/06 08:21:31;;;;;;;;;6.67;5.00;;;;;26.26;35.34;101670.88;5096514;27;45578;-81
2023/07/06 08:23:58;;;;;;;;;4.00;4.00;;;;;26.18;35.53;101658.50;5096291;27;45348;-81
2023/07/06 08:26:29;;;;;;;;;4.00;4.00;;;;;26.24;35.44;101664.91;5097713;27;45265;-81
2023/07/06 08:28:55;;;;;;;;;5.33;3.67;;;;;26.31;35.19;101667.63;5096359;27;45656;-80
2023/07/06 08:31:21;;;;;;;;;4.33;4.33;;;;;26.31;35.29;101670.31;5095315;27;46352;-81
2023/07/06 08:33:47;;;;;;;;;4.00;4.00;;;;;26.32;35.45;101677.31;5095183;27;45445;-80
2023/07/06 08:36:15;;;;;;;;;2.00;2.00;;;;;26.34;35.12;101669.94;5096354;27;45471;-80
2023/07/06 08:38:43;;;;;;;;;2.00;2.00;;;;;26.35;35.74;101658.25;5097433;27;45459;-81
2023/07/06 08:41:31;;;;;;;;;2.00;2.00;;;;;26.41;35.16;101665.47;5096946;27;45384;-81
2023/07/06 08:43:59;;;;;;;;;2.00;2.00;;;;;26.40;34.97;101665.69;5107349;27;45409;-81
2023/07/06 08:46:30;;;;;;;;;3.00;3.00;;;;;26.48;35.28;101670.09;5101026;27;45234;-81
2023/07/06 08:48:55;;;;;;;;;3.00;2.00;;;;;26.48;35.11;101660.25;5096368;27;45521;-80
2023/07/06 08:51:30;;;;;;;;;5.33;3.67;;;;;26.55;34.56;101675.50;5096739;27;45472;-80
2023/07/06 08:54:01;;;;;;;;;2.33;2.00;;;;;26.50;34.25;101670.72;5097039;27;45380;-81
2023/07/06 08:56:28;;;;;;;;;1.00;1.00;;;;;26.46;34.24;101669.47;5084559;27;45454;-81
2023/07/06 08:58:57;;;;;;;;;3.33;1.67;;;;;26.42;34.82;101660.97;5102193;27;45577;-82
2023/07/06 09:01:24;;;;;;;;;3.33;2.67;;;;;26.49;34.53;101669.09;5095221;27;46562;-80
2023/07/06 09:03:56;;;;;;;;;3.00;2.00;;;;;26.48;34.23;101670.09;5119016;27;45337;-80
2023/07/06 09:06:26;;;;;;;;;3.00;3.00;;;;;26.51;34.01;101669.72;5117823;27;45372;-80
2023/07/06 09:08:55;;;;;;;;;2.00;2.00;;;;;26.45;33.60;101652.63;5117309;27;45238;-80
2023/07/06 09:11:23;;;;;;;;;3.00;2.00;;;;;26.49;33.77;101667.22;5106292;27;46275;-80
2023/07/06 09:13:51;;;;;;;;;2.00;2.00;;;;;26.48;33.59;101670.09;5095672;27;45377;-80
2023/07/06 09:16:20;;;;;;;;;2.67;1.00;;;;;26.51;33.87;101677.72;5094539;27;45514;-80
2023/07/06 09:18:47;;;;;;;;;1.00;1.00;;;;;26.49;34.15;101671.78;5096249;27;45587;-80
2023/07/06 09:21:14;;;;;;;;;1.67;1.67;;;;;26.57;33.66;101673.47;5096075;27;46627;-83
2023/07/06 09:23:44;;;;;;;;;3.00;2.33;;;;;26.59;33.82;101672.28;5110169;27;45355;-83
2023/07/06 09:26:21;;;;;;;;;1.33;0.33;;;;;26.61;34.65;101669.41;5106100;27;45354;-83
2023/07/06 09:28:47;;;;;;;;;3.00;1.00;;;;;26.68;34.19;101670.28;5096198;27;45384;-83
2023/07/06 09:31:18;;;;;;;;;2.00;2.00;;;;;26.65;33.77;101651.97;5095052;27;46488;-82
2023/07/06 09:33:48;;;;;;;;;1.33;1.33;;;;;26.70;33.58;101654.09;5096698;27;45368;-82
2023/07/06 09:36:18;;;;;;;;;2.67;1.67;;;;;26.79;33.60;101671.59;5093859;27;45409;-82
2023/07/06 09:38:45;;;;;;;;;1.67;1.67;;;;;26.81;33.22;101660.72;5108958;27;45766;-83
2023/07/06 09:41:25;;;;;;;;;1.00;1.00;;;;;26.77;33.30;101651.47;5116353;27;46376;-81
2023/07/06 09:43:59;;;;;;;;;2.00;2.00;;;;;26.85;33.17;101652.13;5116808;27;45511;-82
2023/07/06 09:46:31;;;;;;;;;3.00;1.67;;;;;26.90;32.94;101650.75;5097543;27;45337;-83
2023/07/06 09:48:57;;;;;;;;;1.67;1.00;;;;;26.98;33.16;101661.28;5096387;27;45477;-83
2023/07/06 09:51:36;;;;;;;;;2.00;2.00;;;;;26.97;33.30;101654.28;5094504;27;45268;-83
2023/07/06 09:54:12;;;;;;;;;4.00;2.00;;;;;27.00;33.00;101656.56;5096246;27;45385;-83
2023/07/06 09:56:38;;;;;;;;;4.33;1.33;;;;;27.05;32.99;101651.47;5091480;27;45428;-84
2023/07/06 09:59:03;;;;;;;;;2.00;1.67;;;;;27.02;33.48;101645.69;5099389;27;45609;-83
2023/07/06 10:01:33;;;;;;;;;4.33;4.00;;;;;27.14;34.15;101651.34;5116667;27;46157;-83
2023/07/06 10:04:17;;;;;;;;;1.00;1.00;;;;;27.21;33.63;101652.22;5093192;27;45346;-82
2023/07/06 10:06:55;;;;;;;;;3.00;1.33;;;;;27.25;33.97;101648.13;5095393;27;45628;-82
2023/07/06 10:09:26;;;;;;;;;2.67;1.67;;;;;27.27;32.92;101642.59;5094433;27;46247;-83
2023/07/06 10:11:56;;;;;;;;;2.00;2.00;;;;;27.28;33.06;101644.22;5095241;27;45527;-82
2023/07/06 10:14:43;;;;;;;;;1.00;1.00;;;;;27.28;32.74;101633.53;5095669;27;45253;-82
2023/07/06 10:17:27;;;;;;;;;2.00;2.00;;;;;27.34;32.33;101638.09;5094429;27;45442;-83
2023/07/06 10:20:05;;;;;;;;;2.33;1.00;;;;;27.38;32.07;101633.19;5094370;27;45503;-83
2023/07/06 10:23:15;;;;;;;;;1.00;1.00;;;;;27.42;31.61;101630.94;5096039;27;45444;-83
2023/07/06 10:25:44;;;;;;;;;1.67;1.00;;;;;27.42;30.91;101630.94;5011691;28;45636;-83
2023/07/06 10:28:23;;;;;;;;;2.33;0.00;;;;;27.36;31.80;101624.53;5012149;28;45891;-83
2023/07/06 10:30:52;;;;;;;;;1.00;1.00;;;;;27.42;31.42;101629.09;5012576;28;45333;-82
2023/07/06 10:33:27;;;;;;;;;1.00;1.00;;;;;27.48;31.36;101630.97;5011903;28;46374;-82
2023/07/06 10:35:53;;;;;;;;;0.00;0.00;;;;;27.51;31.30;101625.22;5011976;28;45482;-82
2023/07/06 10:38:19;;;;;;;;;1.00;1.00;;;;;27.54;30.71;101631.19;4995191;28;45492;-83
2023/07/06 10:41:12;;;;;;;;;0.00;0.00;;;;;27.54;30.96;101618.66;5012049;28;45586;-82
2023/07/06 10:43:43;;;;;;;;;1.00;1.00;;;;;27.52;31.06;101618.88;5011798;28;45672;-82
2023/07/06 10:46:27;;;;;;;;;1.33;1.33;;;;;27.64;31.27;101631.66;5019144;28;45436;-83
2023/07/06 10:48:57;;;;;;;;;1.00;1.00;;;;;27.67;30.59;101628.56;5018639;28;45787;-83
2023/07/06 10:51:25;;;;;;;;;3.00;1.00;;;;;27.68;30.92;101621.38;5018684;28;45936;-83
2023/07/06 10:54:32;;;;;;;;;1.00;1.00;;;;;27.67;30.00;101625.06;5021357;28;46351;-83
2023/07/06 10:57:00;;;;;;;;;2.00;1.00;;;;;27.70;30.40;101619.34;4959479;28;45448;-82
2023/07/06 10:59:38;;;;;;;;;2.33;1.00;;;;;27.69;30.46;101617.69;4956659;28;45368;-81
2023/07/06 11:02:33;;;;;;;;;1.33;1.33;;;;;27.60;30.42;101612.53;4988008;28;45428;-81
2023/07/06 11:05:08;;;;;;;;;1.67;1.00;;;;;27.67;29.89;101625.91;5037680;28;45549;-83
2023/07/06 11:07:41;;;;;;;;;2.00;2.00;;;;;27.68;30.04;101621.38;5038120;28;45519;-81
2023/07/06 11:10:13;;;;;;;;;1.00;1.00;;;;;27.68;30.13;101619.53;5021875;28;45695;-82
2023/07/06 11:13:02;;;;;;;;;3.00;1.00;;;;;27.68;29.84;101619.53;5038247;28;45410;-81
2023/07/06 11:15:39;;;;;;;;;1.67;1.67;;;;;27.67;29.68;101617.06;5033483;28;47062;-81
2023/07/06 11:18:26;;;;;;;;;1.33;1.33;;;;;27.65;29.83;101625.28;5034749;28;45540;-81
2023/07/06 11:20:54;;;;;;;;;0.00;0.00;;;;;27.62;30.02;101623.00;5014110;28;45579;-81
2023/07/06 11:23:34;;;;;;;;;1.00;1.00;;;;;27.55;29.67;101598.09;5034450;28;45482;-80
2023/07/06 11:26:03;;;;;;;;;2.00;0.33;;;;;27.51;30.13;101606.53;5030046;28;46457;-79
2023/07/06 11:28:29;;;;;;;;;1.00;0.33;;;;;27.52;30.27;101608.19;5072678;27;45770;-80
2023/07/06 11:31:29;;;;;;;;;1.00;1.00;;;;;27.56;30.56;101615.81;5112702;27;45406;-79
2023/07/06 11:34:34;;;;;;;;;2.00;2.00;;;;;27.59;30.45;101615.38;5091142;27;45416;-77